sensor_id;sensor_type;location;lat;lon;timestamp;temperature;humidity
7212;DHT22;3647;48.792;9.802;2023-02-15T07:42:32;-1.70;99.90
7212;DHT22;3647;48.792;9.802;2023-02-15T07:44:58;-1.50;99.90
7212;DHT22;3647;48.792;9.802;2023-02-15T07:47:26;-1.40;99.90
7212;DHT22;3647;48.792;9.802;2023-02-15T07:59:43;-1.00;99.90
7212;DHT22;3647;48.792;9.802;2023-02-15T08:02:10;-1.00;99.90
7212;DHT22;3647;48.792;9.802;2023-02-15T08:04:37;-0.80;99.90
7212;DHT22;3647;48.792;9.802;2023-02-15T08:07:04;-0.70;99.90
7212;DHT22;3647;48.792;9.802;2023-02-15T08:09:32;-0.60;99.90
7212;DHT22;3647;48.792;9.802;2023-02-15T08:11:59;-0.40;99.90
7212;DHT22;3647;48.792;9.802;2023-02-15T08:14:27;-0.30;99.90
7212;DHT22;3647;48.792;9.802;2023-02-15T08:16:58;-0.30;99.90
7212;DHT22;3647;48.792;9.802;2023-02-15T08:19:29;-0.20;99.90
7212;DHT22;3647;48.792;9.802;2023-02-15T08:21:58;-0.10;99.90
7212;DHT22;3647;48.792;9.802;2023-02-15T08:24:27;-0.10;99.90
7212;DHT22;3647;48.792;9.802;2023-02-15T08:26:54;1.90;99.90
7212;DHT22;3647;48.792;9.802;2023-02-15T08:29:23;1.70;99.90
7212;DHT22;3647;48.792;9.802;2023-02-15T08:31:53;0.70;99.90
7212;DHT22;3647;48.792;9.802;2023-02-15T08:34:21;0.30;99.90
7212;DHT22;3647;48.792;9.802;2023-02-15T08:36:48;0.40;99.90
7212;DHT22;3647;48.792;9.802;2023-02-15T08:39:15;0.60;99.90
7212;DHT22;3647;48.792;9.802;2023-02-15T08:41:43;0.60;99.90
7212;DHT22;3647;48.792;9.802;2023-02-15T08:44:11;0.80;99.90
7212;DHT22;3647;48.792;9.802;2023-02-15T08:46:39;3.00;99.90
7212;DHT22;3647;48.792;9.802;2023-02-15T08:49:07;1.00;99.90
7212;DHT22;3647;48.792;9.802;2023-02-15T08:51:37;1.10;99.90
7212;DHT22;3647;48.792;9.802;2023-02-15T08:54:07;1.20;99.90
7212;DHT22;3647;48.792;9.802;2023-02-15T08:56:36;1.30;99.90
7212;DHT22;3647;48.792;9.802;2023-02-15T08:59:06;1.40;99.90
7212;DHT22;3647;48.792;9.802;2023-02-15T09:01:34;1.50;99.90
7212;DHT22;3647;48.792;9.802;2023-02-15T09:04:02;1.60;99.90
7212;DHT22;3647;48.792;9.802;2023-02-15T09:06:30;4.20;99.90
7212;DHT22;3647;48.792;9.802;2023-02-15T09:08:59;1.90;99.90
7212;DHT22;3647;48.792;9.802;2023-02-15T09:11:27;2.00;99.90
7212;DHT22;3647;48.792;9.802;2023-02-15T09:13:56;2.20;99.90
7212;DHT22;3647;48.792;9.802;2023-02-15T09:16:24;2.80;99.90
7212;DHT22;3647;48.792;9.802;2023-02-15T09:18:51;4.60;99.90
7212;DHT22;3647;48.792;9.802;2023-02-15T09:21:20;4.30;99.90
7212;DHT22;3647;48.792;9.802;2023-02-15T09:23:49;4.40;99.90
7212;DHT22;3647;48.792;9.802;2023-02-15T09:26:20;2.90;99.90
7212;DHT22;3647;48.792;9.802;2023-02-15T09:28:48;3.10;99.90
7212;DHT22;3647;48.792;9.802;2023-02-15T09:31:19;3.20;99.90
7212;DHT22;3647;48.792;9.802;2023-02-15T09:33:47;3.30;99.90
7212;DHT22;3647;48.792;9.802;2023-02-15T09:36:16;4.60;99.90
7212;DHT22;3647;48.792;9.802;2023-02-15T09:38:44;3.40;99.90
7212;DHT22;3647;48.792;9.802;2023-02-15T09:41:26;3.50;99.90
7212;DHT22;3647;48.792;9.802;2023-02-15T09:44:06;3.60;99.90
7212;DHT22;3647;48.792;9.802;2023-02-15T09:46:52;3.80;99.90
7212;DHT22;3647;48.792;9.802;2023-02-15T09:49:30;3.90;99.90
7212;DHT22;3647;48.792;9.802;2023-02-15T09:52:10;4.00;99.90
7212;DHT22;3647;48.792;9.802;2023-02-15T09:54:56;7.00;99.90
7212;DHT22;3647;48.792;9.802;2023-02-15T09:57:35;4.20;99.90
7212;DHT22;3647;48.792;9.802;2023-02-15T10:00:10;5.70;99.90
7212;DHT22;3647;48.792;9.802;2023-02-15T10:02:53;4.50;99.90
7212;DHT22;3647;48.792;9.802;2023-02-15T10:05:32;4.60;99.90
7212;DHT22;3647;48.792;9.802;2023-02-15T10:08:37;4.80;99.90
7212;DHT22;3647;48.792;9.802;2023-02-15T10:11:12;4.90;99.90
7212;DHT22;3647;48.792;9.802;2023-02-15T10:14:13;6.20;99.90
7212;DHT22;3647;48.792;9.802;2023-02-15T10:16:51;6.80;99.90
7212;DHT22;3647;48.792;9.802;2023-02-15T10:19:31;7.30;99.90
7212;DHT22;3647;48.792;9.802;2023-02-15T10:22:04;5.40;99.90
7212;DHT22;3647;48.792;9.802;2023-02-15T10:24:54;7.10;99.90
7212;DHT22;3647;48.792;9.802;2023-02-15T10:27:22;5.50;99.90
7212;DHT22;3647;48.792;9.802;2023-02-15T10:30:01;5.60;99.90
7212;DHT22;3647;48.792;9.802;2023-02-15T10:32:32;7.10;99.90
7212;DHT22;3647;48.792;9.802;2023-02-15T10:35:10;6.00;99.90
7212;DHT22;3647;48.792;9.802;2023-02-15T10:37:52;6.10;99.90
7212;DHT22;3647;48.792;9.802;2023-02-15T10:40:28;7.10;99.90
7212;DHT22;3647;48.792;9.802;2023-02-15T10:43:14;6.40;99.90
7212;DHT22;3647;48.792;9.802;2023-02-15T10:45:51;6.70;99.90
7212;DHT22;3647;48.792;9.802;2023-02-15T10:48:41;7.00;99.90
7212;DHT22;3647;48.792;9.802;2023-02-15T10:51:17;7.80;99.90
7212;DHT22;3647;48.792;9.802;2023-02-15T10:54:00;6.70;99.90
7212;DHT22;3647;48.792;9.802;2023-02-15T10:56:36;6.90;99.90
7212;DHT22;3647;48.792;9.802;2023-02-15T10:59:16;7.00;99.90
7212;DHT22;3647;48.792;9.802;2023-02-15T11:01:54;7.00;99.90
7212;DHT22;3647;48.792;9.802;2023-02-15T11:04:45;7.20;99.90
7212;DHT22;3647;48.792;9.802;2023-02-15T11:07:17;8.10;99.90
7212;DHT22;3647;48.792;9.802;2023-02-15T11:09:49;7.60;99.90
7212;DHT22;3647;48.792;9.802;2023-02-15T11:12:18;7.70;99.90
7212;DHT22;3647;48.792;9.802;2023-02-15T11:14:52;8.60;99.90
7212;DHT22;3647;48.792;9.802;2023-02-15T11:17:26;7.90;99.90
7212;DHT22;3647;48.792;9.802;2023-02-15T11:19:58;7.90;99.90
7212;DHT22;3647;48.792;9.802;2023-02-15T11:22:29;8.00;99.90
7212;DHT22;3647;48.792;9.802;2023-02-15T11:24:58;8.10;99.90
7212;DHT22;3647;48.792;9.802;2023-02-15T11:27:28;8.20;99.90
7212;DHT22;3647;48.792;9.802;2023-02-15T11:29:59;8.30;99.90
7212;DHT22;3647;48.792;9.802;2023-02-15T11:32:30;8.40;99.90
7212;DHT22;3647;48.792;9.802;2023-02-15T11:35:02;8.50;99.90
7212;DHT22;3647;48.792;9.802;2023-02-15T11:37:35;8.70;99.90
7212;DHT22;3647;48.792;9.802;2023-02-15T11:40:15;8.80;99.90
7212;DHT22;3647;48.792;9.802;2023-02-15T11:42:45;8.80;99.90
7212;DHT22;3647;48.792;9.802;2023-02-15T11:45:22;9.00;99.90
7212;DHT22;3647;48.792;9.802;2023-02-15T11:47:50;7.70;99.90
7212;DHT22;3647;48.792;9.802;2023-02-15T11:50:22;9.30;99.90
7212;DHT22;3647;48.792;9.802;2023-02-15T11:52:51;9.40;99.90
7212;DHT22;3647;48.792;9.802;2023-02-15T11:55:21;9.50;99.90
7212;DHT22;3647;48.792;9.802;2023-02-15T11:57:53;9.50;99.90
7212;DHT22;3647;48.792;9.802;2023-02-15T12:00:29;10.70;99.90
7212;DHT22;3647;48.792;9.802;2023-02-15T12:03:07;9.70;99.90
7212;DHT22;3647;48.792;9.802;2023-02-15T12:05:37;9.80;99.90
7212;DHT22;3647;48.792;9.802;2023-02-15T12:08:12;9.80;99.90
7212;DHT22;3647;48.792;9.802;2023-02-15T12:10:42;9.90;99.90
7212;DHT22;3647;48.792;9.802;2023-02-15T12:13:14;10.00;99.90
7212;DHT22;3647;48.792;9.802;2023-02-15T12:15:44;10.10;99.90
7212;DHT22;3647;48.792;9.802;2023-02-15T12:18:20;10.20;99.90
7212;DHT22;3647;48.792;9.802;2023-02-15T12:20:49;10.80;99.90
7212;DHT22;3647;48.792;9.802;2023-02-15T12:23:17;10.20;99.90
7212;DHT22;3647;48.792;9.802;2023-02-15T12:25:51;10.30;99.90
7212;DHT22;3647;48.792;9.802;2023-02-15T12:28:32;10.40;99.90
7212;DHT22;3647;48.792;9.802;2023-02-15T12:31:02;10.60;99.90
7212;DHT22;3647;48.792;9.802;2023-02-15T12:33:35;10.80;99.90
7212;DHT22;3647;48.792;9.802;2023-02-15T12:36:09;10.90;99.90
7212;DHT22;3647;48.792;9.802;2023-02-15T12:38:37;10.90;99.90
7212;DHT22;3647;48.792;9.802;2023-02-15T12:41:22;10.90;99.90
7212;DHT22;3647;48.792;9.802;2023-02-15T12:44:04;11.00;99.90
7212;DHT22;3647;48.792;9.802;2023-02-15T12:46:32;11.00;99.90
7212;DHT22;3647;48.792;9.802;2023-02-15T12:49:10;10.90;99.90
7212;DHT22;3647;48.792;9.802;2023-02-15T12:51:48;11.00;99.90
7212;DHT22;3647;48.792;9.802;2023-02-15T12:54:39;11.10;99.90
7212;DHT22;3647;48.792;9.802;2023-02-15T12:57:24;11.20;99.90
7212;DHT22;3647;48.792;9.802;2023-02-15T12:59:53;11.30;99.90
7212;DHT22;3647;48.792;9.802;2023-02-15T13:02:24;11.30;99.90
7212;DHT22;3647;48.792;9.802;2023-02-15T13:04:54;11.30;99.90
7212;DHT22;3647;48.792;9.802;2023-02-15T13:07:22;11.30;99.90
7212;DHT22;3647;48.792;9.802;2023-02-15T13:09:51;11.40;99.90
7212;DHT22;3647;48.792;9.802;2023-02-15T13:12:20;11.60;99.90
7212;DHT22;3647;48.792;9.802;2023-02-15T13:14:50;11.70;99.90
7212;DHT22;3647;48.792;9.802;2023-02-15T13:17:19;11.70;99.90
7212;DHT22;3647;48.792;9.802;2023-02-15T13:19:52;11.80;99.90
7212;DHT22;3647;48.792;9.802;2023-02-15T13:22:22;11.80;99.90
7212;DHT22;3647;48.792;9.802;2023-02-15T13:24:53;12.10;99.90
7212;DHT22;3647;48.792;9.802;2023-02-15T13:27:23;12.20;99.90
7212;DHT22;3647;48.792;9.802;2023-02-15T13:29:53;12.30;99.90
7212;DHT22;3647;48.792;9.802;2023-02-15T13:32:28;12.40;99.90
7212;DHT22;3647;48.792;9.802;2023-02-15T13:34:59;12.40;99.90
7212;DHT22;3647;48.792;9.802;2023-02-15T13:37:41;12.40;99.90
7212;DHT22;3647;48.792;9.802;2023-02-15T13:40:14;12.50;99.90
7212;DHT22;3647;48.792;9.802;2023-02-15T13:42:46;12.50;99.90
7212;DHT22;3647;48.792;9.802;2023-02-15T13:45:33;12.50;99.90
7212;DHT22;3647;48.792;9.802;2023-02-15T13:48:10;12.50;99.90
7212;DHT22;3647;48.792;9.802;2023-02-15T13:50:58;12.60;99.90
7212;DHT22;3647;48.792;9.802;2023-02-15T13:53:52;12.90;99.90
7212;DHT22;3647;48.792;9.802;2023-02-15T13:56:32;12.70;99.90
7212;DHT22;3647;48.792;9.802;2023-02-15T13:59:20;12.60;99.90
7212;DHT22;3647;48.792;9.802;2023-02-15T14:01:56;12.50;99.90
7212;DHT22;3647;48.792;9.802;2023-02-15T14:04:50;12.50;99.90
7212;DHT22;3647;48.792;9.802;2023-02-15T14:07:36;12.60;99.90
7212;DHT22;3647;48.792;9.802;2023-02-15T14:10:27;12.60;99.90
7212;DHT22;3647;48.792;9.802;2023-02-15T14:13:05;14.90;99.90
7212;DHT22;3647;48.792;9.802;2023-02-15T14:15:40;12.70;99.90
7212;DHT22;3647;48.792;9.802;2023-02-15T14:18:18;12.70;99.90
7212;DHT22;3647;48.792;9.802;2023-02-15T14:20:54;12.70;99.90
7212;DHT22;3647;48.792;9.802;2023-02-15T14:23:35;12.80;99.90
7212;DHT22;3647;48.792;9.802;2023-02-15T14:26:09;12.80;99.90
7212;DHT22;3647;48.792;9.802;2023-02-15T14:28:44;12.70;99.90
7212;DHT22;3647;48.792;9.802;2023-02-15T14:31:13;13.70;99.90
7212;DHT22;3647;48.792;9.802;2023-02-15T14:33:46;12.70;99.90
7212;DHT22;3647;48.792;9.802;2023-02-15T14:36:18;12.70;99.90
7212;DHT22;3647;48.792;9.802;2023-02-15T14:38:59;12.60;99.90
7212;DHT22;3647;48.792;9.802;2023-02-15T14:41:31;12.70;99.90
7212;DHT22;3647;48.792;9.802;2023-02-15T14:44:05;12.70;99.90
7212;DHT22;3647;48.792;9.802;2023-02-15T14:46:37;12.70;99.90
7212;DHT22;3647;48.792;9.802;2023-02-15T14:49:11;12.80;99.90
7212;DHT22;3647;48.792;9.802;2023-02-15T14:51:57;12.70;99.90
7212;DHT22;3647;48.792;9.802;2023-02-15T14:54:55;12.80;99.90
7212;DHT22;3647;48.792;9.802;2023-02-15T14:57:27;12.80;99.90
7212;DHT22;3647;48.792;9.802;2023-02-15T14:59:57;12.90;99.90
7212;DHT22;3647;48.792;9.802;2023-02-15T15:02:27;12.90;99.90
7212;DHT22;3647;48.792;9.802;2023-02-15T15:04:59;12.80;99.90
7212;DHT22;3647;48.792;9.802;2023-02-15T15:07:34;12.80;99.90
7212;DHT22;3647;48.792;9.802;2023-02-15T15:10:05;12.90;99.90
7212;DHT22;3647;48.792;9.802;2023-02-15T15:12:41;12.80;99.90
7212;DHT22;3647;48.792;9.802;2023-02-15T15:15:13;12.80;99.90
7212;DHT22;3647;48.792;9.802;2023-02-15T15:17:55;12.80;99.90
7212;DHT22;3647;48.792;9.802;2023-02-15T15:20:47;12.70;99.90
7212;DHT22;3647;48.792;9.802;2023-02-15T15:23:39;12.60;99.90
7212;DHT22;3647;48.792;9.802;2023-02-15T15:26:27;12.50;99.90
7212;DHT22;3647;48.792;9.802;2023-02-15T15:28:57;12.40;99.90
7212;DHT22;3647;48.792;9.802;2023-02-15T15:31:37;12.30;99.90
7212;DHT22;3647;48.792;9.802;2023-02-15T15:34:43;12.20;99.90
7212;DHT22;3647;48.792;9.802;2023-02-15T15:37:51;12.20;99.90
7212;DHT22;3647;48.792;9.802;2023-02-15T15:40:42;12.10;99.90
7212;DHT22;3647;48.792;9.802;2023-02-15T15:43:40;12.00;99.90
7212;DHT22;3647;48.792;9.802;2023-02-15T15:46:45;11.90;99.90
7212;DHT22;3647;48.792;9.802;2023-02-15T15:49:18;11.90;99.90
7212;DHT22;3647;48.792;9.802;2023-02-15T15:51:46;11.80;99.90
7212;DHT22;3647;48.792;9.802;2023-02-15T15:54:16;11.70;99.90
7212;DHT22;3647;48.792;9.802;2023-02-15T15:56:46;11.70;99.90
7212;DHT22;3647;48.792;9.802;2023-02-15T15:59:18;11.60;99.90
7212;DHT22;3647;48.792;9.802;2023-02-15T16:01:47;11.40;99.90
7212;DHT22;3647;48.792;9.802;2023-02-15T16:04:24;11.20;99.90
7212;DHT22;3647;48.792;9.802;2023-02-15T16:06:52;11.00;99.90
7212;DHT22;3647;48.792;9.802;2023-02-15T16:09:20;10.80;99.90
7212;DHT22;3647;48.792;9.802;2023-02-15T16:11:49;10.60;99.90
7212;DHT22;3647;48.792;9.802;2023-02-15T16:14:24;10.40;99.90
7212;DHT22;3647;48.792;9.802;2023-02-15T16:16:54;10.30;99.90
7212;DHT22;3647;48.792;9.802;2023-02-15T16:19:25;10.20;99.90
7212;DHT22;3647;48.792;9.802;2023-02-15T16:21:54;10.10;99.90
7212;DHT22;3647;48.792;9.802;2023-02-15T16:24:45;9.80;99.90
7212;DHT22;3647;48.792;9.802;2023-02-15T16:27:29;9.60;99.90
7212;DHT22;3647;48.792;9.802;2023-02-15T16:30:17;9.40;99.90
7212;DHT22;3647;48.792;9.802;2023-02-15T16:32:45;9.20;99.90
7212;DHT22;3647;48.792;9.802;2023-02-15T16:35:14;9.20;99.90
7212;DHT22;3647;48.792;9.802;2023-02-15T16:37:42;8.80;99.90
7212;DHT22;3647;48.792;9.802;2023-02-15T16:40:35;8.70;99.90
7212;DHT22;3647;48.792;9.802;2023-02-15T16:43:06;8.50;99.90
7212;DHT22;3647;48.792;9.802;2023-02-15T16:45:38;8.40;99.90
7212;DHT22;3647;48.792;9.802;2023-02-15T16:48:10;8.20;99.90
7212;DHT22;3647;48.792;9.802;2023-02-15T16:50:38;8.10;99.90
7212;DHT22;3647;48.792;9.802;2023-02-15T16:53:12;7.80;99.90
7212;DHT22;3647;48.792;9.802;2023-02-15T16:55:41;8.50;99.90
7212;DHT22;3647;48.792;9.802;2023-02-15T16:58:14;7.50;99.90
7212;DHT22;3647;48.792;9.802;2023-02-15T17:00:43;7.50;99.90
7212;DHT22;3647;48.792;9.802;2023-02-15T17:03:22;9.10;99.90
7212;DHT22;3647;48.792;9.802;2023-02-15T17:05:51;7.30;99.90
7212;DHT22;3647;48.792;9.802;2023-02-15T17:08:23;7.10;99.90
7212;DHT22;3647;48.792;9.802;2023-02-15T17:11:04;7.00;99.90
7212;DHT22;3647;48.792;9.802;2023-02-15T17:13:32;6.90;99.90
7212;DHT22;3647;48.792;9.802;2023-02-15T17:16:30;6.80;99.90
7212;DHT22;3647;48.792;9.802;2023-02-15T17:18:59;8.30;99.90
7212;DHT22;3647;48.792;9.802;2023-02-15T17:21:31;6.50;99.90
7212;DHT22;3647;48.792;9.802;2023-02-15T17:24:00;6.40;99.90
7212;DHT22;3647;48.792;9.802;2023-02-15T17:26:31;6.30;99.90
7212;DHT22;3647;48.792;9.802;2023-02-15T17:29:00;6.10;99.90
7212;DHT22;3647;48.792;9.802;2023-02-15T17:31:32;6.00;99.90
7212;DHT22;3647;48.792;9.802;2023-02-15T17:34:00;6.00;99.90
7212;DHT22;3647;48.792;9.802;2023-02-15T17:36:28;5.90;99.90
7212;DHT22;3647;48.792;9.802;2023-02-15T17:39:05;5.90;99.90
7212;DHT22;3647;48.792;9.802;2023-02-15T17:41:34;5.80;99.90
7212;DHT22;3647;48.792;9.802;2023-02-15T17:44:03;5.60;99.90
7212;DHT22;3647;48.792;9.802;2023-02-15T17:46:34;5.50;99.90
7212;DHT22;3647;48.792;9.802;2023-02-15T17:49:02;5.50;99.90
7212;DHT22;3647;48.792;9.802;2023-02-15T17:51:30;6.70;99.90
7212;DHT22;3647;48.792;9.802;2023-02-15T17:53:57;7.90;99.90
7212;DHT22;3647;48.792;9.802;2023-02-15T17:56:42;5.20;99.90
7212;DHT22;3647;48.792;9.802;2023-02-15T17:59:12;5.10;99.90
7212;DHT22;3647;48.792;9.802;2023-02-15T18:01:44;5.10;99.90
7212;DHT22;3647;48.792;9.802;2023-02-15T18:04:30;4.80;99.90
7212;DHT22;3647;48.792;9.802;2023-02-15T18:07:16;4.70;99.90
7212;DHT22;3647;48.792;9.802;2023-02-15T18:10:02;4.60;99.90
7212;DHT22;3647;48.792;9.802;2023-02-15T18:12:46;4.50;99.90
7212;DHT22;3647;48.792;9.802;2023-02-15T18:15:13;4.50;99.90
7212;DHT22;3647;48.792;9.802;2023-02-15T18:17:43;4.40;99.90
7212;DHT22;3647;48.792;9.802;2023-02-15T18:20:18;4.30;99.90
7212;DHT22;3647;48.792;9.802;2023-02-15T18:22:46;4.30;99.90
7212;DHT22;3647;48.792;9.802;2023-02-15T18:25:14;4.20;99.90
7212;DHT22;3647;48.792;9.802;2023-02-15T18:27:41;4.10;99.90
7212;DHT22;3647;48.792;9.802;2023-02-15T18:30:12;4.00;99.90
7212;DHT22;3647;48.792;9.802;2023-02-15T18:32:40;4.00;99.90
7212;DHT22;3647;48.792;9.802;2023-02-15T18:35:13;3.90;99.90
7212;DHT22;3647;48.792;9.802;2023-02-15T18:37:40;3.90;99.90
7212;DHT22;3647;48.792;9.802;2023-02-15T18:40:14;3.20;99.90
7212;DHT22;3647;48.792;9.802;2023-02-15T18:42:41;3.70;99.90
7212;DHT22;3647;48.792;9.802;2023-02-15T18:45:14;3.60;99.90
7212;DHT22;3647;48.792;9.802;2023-02-15T18:47:43;3.60;99.90
7212;DHT22;3647;48.792;9.802;2023-02-15T18:50:11;5.20;99.90
7212;DHT22;3647;48.792;9.802;2023-02-15T18:52:38;3.80;99.90
7212;DHT22;3647;48.792;9.802;2023-02-15T18:55:15;3.40;99.90
7212;DHT22;3647;48.792;9.802;2023-02-15T18:57:43;3.30;99.90
7212;DHT22;3647;48.792;9.802;2023-02-15T19:00:14;3.30;99.90
7212;DHT22;3647;48.792;9.802;2023-02-15T19:02:44;3.30;99.90
7212;DHT22;3647;48.792;9.802;2023-02-15T19:05:11;3.20;99.90
7212;DHT22;3647;48.792;9.802;2023-02-15T19:07:39;3.10;99.90
7212;DHT22;3647;48.792;9.802;2023-02-15T19:10:12;3.50;99.90
7212;DHT22;3647;48.792;9.802;2023-02-15T19:12:40;3.00;99.90
7212;DHT22;3647;48.792;9.802;2023-02-15T19:15:13;4.10;99.90
7212;DHT22;3647;48.792;9.802;2023-02-15T19:17:41;2.90;99.90
7212;DHT22;3647;48.792;9.802;2023-02-15T19:20:15;2.90;99.90
7212;DHT22;3647;48.792;9.802;2023-02-15T19:22:42;3.10;99.90
7212;DHT22;3647;48.792;9.802;2023-02-15T19:25:14;1.40;99.90
7212;DHT22;3647;48.792;9.802;2023-02-15T19:27:42;2.60;99.90
7212;DHT22;3647;48.792;9.802;2023-02-15T19:30:14;2.60;99.90
7212;DHT22;3647;48.792;9.802;2023-02-15T19:32:42;2.50;99.90
7212;DHT22;3647;48.792;9.802;2023-02-15T19:35:14;3.90;99.90
7212;DHT22;3647;48.792;9.802;2023-02-15T19:37:43;2.50;99.90
7212;DHT22;3647;48.792;9.802;2023-02-15T19:40:18;3.70;99.90
7212;DHT22;3647;48.792;9.802;2023-02-15T19:42:45;2.40;99.90
7212;DHT22;3647;48.792;9.802;2023-02-15T19:45:13;2.30;99.90
7212;DHT22;3647;48.792;9.802;2023-02-15T19:47:41;2.30;99.90
7212;DHT22;3647;48.792;9.802;2023-02-15T19:50:15;2.20;99.90
7212;DHT22;3647;48.792;9.802;2023-02-15T19:52:42;2.10;99.90
7212;DHT22;3647;48.792;9.802;2023-02-15T19:55:16;2.10;99.90
7212;DHT22;3647;48.792;9.802;2023-02-15T19:57:46;2.10;99.90
7212;DHT22;3647;48.792;9.802;2023-02-15T20:00:17;2.00;99.90
7212;DHT22;3647;48.792;9.802;2023-02-15T20:02:45;2.00;99.90
7212;DHT22;3647;48.792;9.802;2023-02-15T20:05:12;1.90;99.90
7212;DHT22;3647;48.792;9.802;2023-02-15T20:07:42;1.90;99.90
7212;DHT22;3647;48.792;9.802;2023-02-15T20:10:15;4.10;99.90
7212;DHT22;3647;48.792;9.802;2023-02-15T20:12:43;1.90;99.90
7212;DHT22;3647;48.792;9.802;2023-02-15T20:15:19;1.90;99.90
7212;DHT22;3647;48.792;9.802;2023-02-15T20:17:46;1.80;99.90
7212;DHT22;3647;48.792;9.802;2023-02-15T20:20:14;1.70;99.90
7212;DHT22;3647;48.792;9.802;2023-02-15T20:22:44;1.70;99.90
7212;DHT22;3647;48.792;9.802;2023-02-15T20:25:15;1.60;99.90
7212;DHT22;3647;48.792;9.802;2023-02-15T20:27:42;1.60;99.90
7212;DHT22;3647;48.792;9.802;2023-02-15T20:30:17;1.50;99.90
7212;DHT22;3647;48.792;9.802;2023-02-15T20:32:44;1.50;99.90
7212;DHT22;3647;48.792;9.802;2023-02-15T20:35:16;3.90;99.90
7212;DHT22;3647;48.792;9.802;2023-02-15T20:37:46;1.40;99.90
7212;DHT22;3647;48.792;9.802;2023-02-15T20:40:15;1.20;99.90
7212;DHT22;3647;48.792;9.802;2023-02-15T20:42:42;1.30;99.90
7212;DHT22;3647;48.792;9.802;2023-02-15T20:45:17;1.30;99.90
7212;DHT22;3647;48.792;9.802;2023-02-15T20:47:45;1.30;99.90
7212;DHT22;3647;48.792;9.802;2023-02-15T20:50:15;1.20;99.90
7212;DHT22;3647;48.792;9.802;2023-02-15T20:52:42;1.20;99.90
7212;DHT22;3647;48.792;9.802;2023-02-15T20:55:14;1.20;99.90
7212;DHT22;3647;48.792;9.802;2023-02-15T20:57:41;1.10;99.90
7212;DHT22;3647;48.792;9.802;2023-02-15T21:00:13;1.10;99.90
7212;DHT22;3647;48.792;9.802;2023-02-15T21:02:40;1.00;99.90
7212;DHT22;3647;48.792;9.802;2023-02-15T21:05:16;1.40;99.90
7212;DHT22;3647;48.792;9.802;2023-02-15T21:07:43;2.50;99.90
7212;DHT22;3647;48.792;9.802;2023-02-15T21:10:18;2.90;99.90
7212;DHT22;3647;48.792;9.802;2023-02-15T21:12:46;0.90;99.90
7212;DHT22;3647;48.792;9.802;2023-02-15T21:15:32;0.90;99.90
7212;DHT22;3647;48.792;9.802;2023-02-15T21:18:01;0.80;99.90
7212;DHT22;3647;48.792;9.802;2023-02-15T21:20:30;0.80;99.90
7212;DHT22;3647;48.792;9.802;2023-02-15T21:22:58;2.80;99.90
7212;DHT22;3647;48.792;9.802;2023-02-15T21:25:29;0.70;99.90
7212;DHT22;3647;48.792;9.802;2023-02-15T21:27:57;0.70;99.90
7212;DHT22;3647;48.792;9.802;2023-02-15T21:30:24;0.60;99.90
7212;DHT22;3647;48.792;9.802;2023-02-15T21:32:51;0.60;99.90
7212;DHT22;3647;48.792;9.802;2023-02-15T21:35:19;0.60;99.90
7212;DHT22;3647;48.792;9.802;2023-02-15T21:37:48;0.60;99.90
7212;DHT22;3647;48.792;9.802;2023-02-15T21:40:17;1.40;99.90
7212;DHT22;3647;48.792;9.802;2023-02-15T21:42:46;0.50;99.90
7212;DHT22;3647;48.792;9.802;2023-02-15T21:48:15;0.50;99.90
7212;DHT22;3647;48.792;9.802;2023-02-15T21:50:42;1.30;99.90
7212;DHT22;3647;48.792;9.802;2023-02-15T21:53:30;0.40;99.90
7212;DHT22;3647;48.792;9.802;2023-02-15T21:55:59;0.40;99.90
7212;DHT22;3647;48.792;9.802;2023-02-15T21:58:29;0.40;99.90
7212;DHT22;3647;48.792;9.802;2023-02-15T22:00:58;0.40;99.90
7212;DHT22;3647;48.792;9.802;2023-02-15T22:03:28;2.50;99.90
7212;DHT22;3647;48.792;9.802;2023-02-15T22:05:55;0.40;99.90
7212;DHT22;3647;48.792;9.802;2023-02-15T22:08:22;0.40;99.90
7212;DHT22;3647;48.792;9.802;2023-02-15T22:10:49;0.40;99.90
7212;DHT22;3647;48.792;9.802;2023-02-15T22:13:20;0.40;99.90
7212;DHT22;3647;48.792;9.802;2023-02-15T22:15:49;0.40;99.90
7212;DHT22;3647;48.792;9.802;2023-02-15T22:18:19;1.40;99.90
